sensor_id;sensor_type;location;lat;lon;timestamp;temperature;humidity
74420;DHT22;62855;50.718;-2.460;2023-03-16T00:00:07;47.84;88.00
74420;DHT22;62855;50.718;-2.460;2023-03-16T00:03:05;47.84;88.00
74420;DHT22;62855;50.718;-2.460;2023-03-16T00:06:06;47.84;88.00
74420;DHT22;62855;50.718;-2.460;2023-03-16T00:09:06;47.84;88.00
74420;DHT22;62855;50.718;-2.460;2023-03-16T00:12:10;47.84;88.00
74420;DHT22;62855;50.718;-2.460;2023-03-16T00:15:07;47.84;88.00
74420;DHT22;62855;50.718;-2.460;2023-03-16T00:18:06;47.84;88.00
74420;DHT22;62855;50.718;-2.460;2023-03-16T00:21:05;47.84;88.00
74420;DHT22;62855;50.718;-2.460;2023-03-16T00:24:06;47.84;88.00
74420;DHT22;62855;50.718;-2.460;2023-03-16T00:27:06;47.84;88.00
74420;DHT22;62855;50.718;-2.460;2023-03-16T00:30:07;47.84;88.00
74420;DHT22;62855;50.718;-2.460;2023-03-16T00:33:06;47.84;88.00
74420;DHT22;62855;50.718;-2.460;2023-03-16T00:36:07;47.84;88.00
74420;DHT22;62855;50.718;-2.460;2023-03-16T00:39:06;47.84;88.00
74420;DHT22;62855;50.718;-2.460;2023-03-16T00:42:07;47.84;88.00
74420;DHT22;62855;50.718;-2.460;2023-03-16T00:45:07;47.84;88.00
74420;DHT22;62855;50.718;-2.460;2023-03-16T00:48:05;47.84;88.00
74420;DHT22;62855;50.718;-2.460;2023-03-16T00:51:07;47.84;88.00
74420;DHT22;62855;50.718;-2.460;2023-03-16T00:54:06;47.84;88.00
74420;DHT22;62855;50.718;-2.460;2023-03-16T00:57:06;47.84;88.00
74420;DHT22;62855;50.718;-2.460;2023-03-16T01:00:07;47.84;88.00
74420;DHT22;62855;50.718;-2.460;2023-03-16T01:03:06;47.84;88.00
74420;DHT22;62855;50.718;-2.460;2023-03-16T01:06:07;47.84;88.00
74420;DHT22;62855;50.718;-2.460;2023-03-16T01:09:06;47.84;88.00
74420;DHT22;62855;50.718;-2.460;2023-03-16T01:12:09;47.84;88.00
74420;DHT22;62855;50.718;-2.460;2023-03-16T01:15:08;47.84;88.00
74420;DHT22;62855;50.718;-2.460;2023-03-16T01:18:06;47.84;88.00
74420;DHT22;62855;50.718;-2.460;2023-03-16T01:21:08;47.84;88.00
74420;DHT22;62855;50.718;-2.460;2023-03-16T01:24:07;47.84;88.00
74420;DHT22;62855;50.718;-2.460;2023-03-16T01:27:07;47.84;88.00
74420;DHT22;62855;50.718;-2.460;2023-03-16T01:30:06;47.84;88.00
74420;DHT22;62855;50.718;-2.460;2023-03-16T01:33:06;47.84;88.00
74420;DHT22;62855;50.718;-2.460;2023-03-16T01:36:09;47.84;88.00
74420;DHT22;62855;50.718;-2.460;2023-03-16T01:39:07;47.84;88.00
74420;DHT22;62855;50.718;-2.460;2023-03-16T01:42:06;47.84;88.00
74420;DHT22;62855;50.718;-2.460;2023-03-16T01:48:06;47.84;88.00
74420;DHT22;62855;50.718;-2.460;2023-03-16T01:51:09;47.84;88.00
74420;DHT22;62855;50.718;-2.460;2023-03-16T01:54:10;47.84;88.00
74420;DHT22;62855;50.718;-2.460;2023-03-16T01:57:08;47.84;88.00
74420;DHT22;62855;50.718;-2.460;2023-03-16T02:00:07;47.84;88.00
74420;DHT22;62855;50.718;-2.460;2023-03-16T02:03:09;47.84;88.00
74420;DHT22;62855;50.718;-2.460;2023-03-16T02:06:10;47.84;88.00
74420;DHT22;62855;50.718;-2.460;2023-03-16T02:09:07;47.84;88.00
74420;DHT22;62855;50.718;-2.460;2023-03-16T02:12:07;47.84;88.00
74420;DHT22;62855;50.718;-2.460;2023-03-16T02:15:07;47.84;88.00
74420;DHT22;62855;50.718;-2.460;2023-03-16T02:18:06;47.84;88.00
74420;DHT22;62855;50.718;-2.460;2023-03-16T02:21:13;47.84;88.00
74420;DHT22;62855;50.718;-2.460;2023-03-16T02:24:06;47.84;88.00
74420;DHT22;62855;50.718;-2.460;2023-03-16T02:27:08;47.66;88.00
74420;DHT22;62855;50.718;-2.460;2023-03-16T02:30:08;47.66;88.00
74420;DHT22;62855;50.718;-2.460;2023-03-16T02:33:06;47.66;88.00
74420;DHT22;62855;50.718;-2.460;2023-03-16T02:36:06;47.66;88.00
74420;DHT22;62855;50.718;-2.460;2023-03-16T02:39:06;47.66;88.00
74420;DHT22;62855;50.718;-2.460;2023-03-16T02:42:10;47.66;88.00
74420;DHT22;62855;50.718;-2.460;2023-03-16T02:45:07;47.66;88.00
74420;DHT22;62855;50.718;-2.460;2023-03-16T02:48:09;47.66;88.00
74420;DHT22;62855;50.718;-2.460;2023-03-16T02:51:06;47.66;88.00
74420;DHT22;62855;50.718;-2.460;2023-03-16T02:54:05;47.66;88.00
74420;DHT22;62855;50.718;-2.460;2023-03-16T02:57:05;47.66;88.00
74420;DHT22;62855;50.718;-2.460;2023-03-16T03:00:09;47.66;88.00
74420;DHT22;62855;50.718;-2.460;2023-03-16T03:03:06;47.66;88.00
74420;DHT22;62855;50.718;-2.460;2023-03-16T03:06:06;47.66;88.00
74420;DHT22;62855;50.718;-2.460;2023-03-16T03:09:06;47.66;88.00
74420;DHT22;62855;50.718;-2.460;2023-03-16T03:12:06;47.66;88.00
74420;DHT22;62855;50.718;-2.460;2023-03-16T03:15:07;47.66;88.00
74420;DHT22;62855;50.718;-2.460;2023-03-16T03:18:06;47.48;88.00
74420;DHT22;62855;50.718;-2.460;2023-03-16T03:21:06;47.48;88.00
74420;DHT22;62855;50.718;-2.460;2023-03-16T03:24:06;47.48;88.00
74420;DHT22;62855;50.718;-2.460;2023-03-16T03:27:06;47.48;88.00
74420;DHT22;62855;50.718;-2.460;2023-03-16T03:30:07;47.48;88.00
74420;DHT22;62855;50.718;-2.460;2023-03-16T03:33:06;47.48;88.00
74420;DHT22;62855;50.718;-2.460;2023-03-16T03:36:06;47.48;88.00
74420;DHT22;62855;50.718;-2.460;2023-03-16T03:39:06;47.48;88.00
74420;DHT22;62855;50.718;-2.460;2023-03-16T03:42:07;47.48;88.00
74420;DHT22;62855;50.718;-2.460;2023-03-16T03:45:07;47.48;88.00
74420;DHT22;62855;50.718;-2.460;2023-03-16T03:48:06;47.48;88.00
74420;DHT22;62855;50.718;-2.460;2023-03-16T03:51:06;47.48;88.00
74420;DHT22;62855;50.718;-2.460;2023-03-16T03:54:07;47.48;88.00
74420;DHT22;62855;50.718;-2.460;2023-03-16T03:57:05;47.48;88.00
74420;DHT22;62855;50.718;-2.460;2023-03-16T04:00:08;47.48;88.00
74420;DHT22;62855;50.718;-2.460;2023-03-16T04:03:06;47.48;88.00
74420;DHT22;62855;50.718;-2.460;2023-03-16T04:06:06;47.48;88.00
74420;DHT22;62855;50.718;-2.460;2023-03-16T04:09:06;47.48;88.00
74420;DHT22;62855;50.718;-2.460;2023-03-16T04:12:06;47.48;88.00
74420;DHT22;62855;50.718;-2.460;2023-03-16T04:15:07;47.48;88.00
74420;DHT22;62855;50.718;-2.460;2023-03-16T04:18:06;47.48;88.00
74420;DHT22;62855;50.718;-2.460;2023-03-16T04:21:08;47.48;88.00
74420;DHT22;62855;50.718;-2.460;2023-03-16T04:24:06;47.48;88.00
74420;DHT22;62855;50.718;-2.460;2023-03-16T04:27:06;47.48;88.00
74420;DHT22;62855;50.718;-2.460;2023-03-16T04:30:10;47.48;88.00
74420;DHT22;62855;50.718;-2.460;2023-03-16T04:33:06;47.48;87.00
74420;DHT22;62855;50.718;-2.460;2023-03-16T04:36:06;47.48;87.00
74420;DHT22;62855;50.718;-2.460;2023-03-16T04:39:06;47.48;87.00
74420;DHT22;62855;50.718;-2.460;2023-03-16T04:42:06;47.48;87.00
74420;DHT22;62855;50.718;-2.460;2023-03-16T04:45:07;47.48;87.00
74420;DHT22;62855;50.718;-2.460;2023-03-16T04:48:06;47.66;87.00
74420;DHT22;62855;50.718;-2.460;2023-03-16T04:51:06;47.66;87.00
74420;DHT22;62855;50.718;-2.460;2023-03-16T04:54:06;47.66;87.00
74420;DHT22;62855;50.718;-2.460;2023-03-16T04:57:06;47.66;87.00
74420;DHT22;62855;50.718;-2.460;2023-03-16T05:00:06;47.66;87.00
74420;DHT22;62855;50.718;-2.460;2023-03-16T05:03:06;47.66;87.00
74420;DHT22;62855;50.718;-2.460;2023-03-16T05:06:06;47.66;86.00
74420;DHT22;62855;50.718;-2.460;2023-03-16T05:09:06;47.66;86.00
74420;DHT22;62855;50.718;-2.460;2023-03-16T05:12:06;47.66;86.00
74420;DHT22;62855;50.718;-2.460;2023-03-16T05:15:07;47.66;86.00
74420;DHT22;62855;50.718;-2.460;2023-03-16T05:18:06;47.66;86.00
74420;DHT22;62855;50.718;-2.460;2023-03-16T05:21:06;47.84;86.00
74420;DHT22;62855;50.718;-2.460;2023-03-16T05:24:06;47.84;85.00
74420;DHT22;62855;50.718;-2.460;2023-03-16T05:27:05;47.84;85.00
74420;DHT22;62855;50.718;-2.460;2023-03-16T05:30:07;47.84;85.00
74420;DHT22;62855;50.718;-2.460;2023-03-16T05:33:05;47.84;84.00
74420;DHT22;62855;50.718;-2.460;2023-03-16T05:36:07;47.84;84.00
74420;DHT22;62855;50.718;-2.460;2023-03-16T05:39:05;47.84;84.00
74420;DHT22;62855;50.718;-2.460;2023-03-16T05:42:06;47.84;84.00
74420;DHT22;62855;50.718;-2.460;2023-03-16T05:45:07;47.84;83.00
74420;DHT22;62855;50.718;-2.460;2023-03-16T05:48:05;47.84;83.00
74420;DHT22;62855;50.718;-2.460;2023-03-16T05:51:06;47.84;83.00
74420;DHT22;62855;50.718;-2.460;2023-03-16T05:54:06;47.84;82.00
74420;DHT22;62855;50.718;-2.460;2023-03-16T05:57:06;47.84;82.00
74420;DHT22;62855;50.718;-2.460;2023-03-16T06:00:08;47.84;82.00
74420;DHT22;62855;50.718;-2.460;2023-03-16T06:03:06;47.84;82.00
74420;DHT22;62855;50.718;-2.460;2023-03-16T06:06:06;47.84;82.00
74420;DHT22;62855;50.718;-2.460;2023-03-16T06:09:06;47.84;82.00
74420;DHT22;62855;50.718;-2.460;2023-03-16T06:12:06;47.84;82.00
74420;DHT22;62855;50.718;-2.460;2023-03-16T06:15:08;47.84;82.00
74420;DHT22;62855;50.718;-2.460;2023-03-16T06:18:06;47.84;81.00
74420;DHT22;62855;50.718;-2.460;2023-03-16T06:21:06;47.84;81.00
74420;DHT22;62855;50.718;-2.460;2023-03-16T06:24:07;47.84;81.00
74420;DHT22;62855;50.718;-2.460;2023-03-16T06:27:06;47.84;81.00
74420;DHT22;62855;50.718;-2.460;2023-03-16T06:30:08;47.84;81.00
74420;DHT22;62855;50.718;-2.460;2023-03-16T06:33:06;47.84;81.00
74420;DHT22;62855;50.718;-2.460;2023-03-16T06:36:06;47.84;81.00
74420;DHT22;62855;50.718;-2.460;2023-03-16T06:39:06;47.84;81.00
74420;DHT22;62855;50.718;-2.460;2023-03-16T06:42:06;47.84;81.00
74420;DHT22;62855;50.718;-2.460;2023-03-16T06:45:08;48.02;81.00
74420;DHT22;62855;50.718;-2.460;2023-03-16T06:48:06;48.02;81.00
74420;DHT22;62855;50.718;-2.460;2023-03-16T06:51:05;48.02;81.00
74420;DHT22;62855;50.718;-2.460;2023-03-16T06:54:07;48.02;81.00
74420;DHT22;62855;50.718;-2.460;2023-03-16T06:57:06;48.02;81.00
74420;DHT22;62855;50.718;-2.460;2023-03-16T07:00:07;48.02;80.00
74420;DHT22;62855;50.718;-2.460;2023-03-16T07:03:06;48.02;80.00
74420;DHT22;62855;50.718;-2.460;2023-03-16T07:06:06;48.02;80.00
74420;DHT22;62855;50.718;-2.460;2023-03-16T07:09:07;48.02;80.00
74420;DHT22;62855;50.718;-2.460;2023-03-16T07:12:07;48.02;80.00
74420;DHT22;62855;50.718;-2.460;2023-03-16T07:15:06;48.02;81.00
74420;DHT22;62855;50.718;-2.460;2023-03-16T07:18:06;48.20;81.00
74420;DHT22;62855;50.718;-2.460;2023-03-16T07:21:06;48.20;80.00
74420;DHT22;62855;50.718;-2.460;2023-03-16T07:24:06;48.02;80.00
74420;DHT22;62855;50.718;-2.460;2023-03-16T07:27:06;48.20;80.00
74420;DHT22;62855;50.718;-2.460;2023-03-16T07:30:07;48.20;80.00
74420;DHT22;62855;50.718;-2.460;2023-03-16T07:33:05;48.20;80.00
74420;DHT22;62855;50.718;-2.460;2023-03-16T07:36:07;48.20;80.00
74420;DHT22;62855;50.718;-2.460;2023-03-16T07:39:06;48.20;80.00
74420;DHT22;62855;50.718;-2.460;2023-03-16T07:42:06;48.20;80.00
74420;DHT22;62855;50.718;-2.460;2023-03-16T07:45:07;48.20;79.00
74420;DHT22;62855;50.718;-2.460;2023-03-16T07:48:06;48.20;79.00
74420;DHT22;62855;50.718;-2.460;2023-03-16T07:51:06;48.20;79.00
74420;DHT22;62855;50.718;-2.460;2023-03-16T07:54:06;48.20;79.00
74420;DHT22;62855;50.718;-2.460;2023-03-16T07:57:06;48.20;79.00
74420;DHT22;62855;50.718;-2.460;2023-03-16T08:00:08;48.20;79.00
74420;DHT22;62855;50.718;-2.460;2023-03-16T08:03:07;48.38;79.00
74420;DHT22;62855;50.718;-2.460;2023-03-16T08:06:06;48.38;79.00
74420;DHT22;62855;50.718;-2.460;2023-03-16T08:09:06;48.38;79.00
74420;DHT22;62855;50.718;-2.460;2023-03-16T08:12:07;48.38;79.00
74420;DHT22;62855;50.718;-2.460;2023-03-16T08:15:07;48.38;79.00
74420;DHT22;62855;50.718;-2.460;2023-03-16T08:18:06;48.38;79.00
74420;DHT22;62855;50.718;-2.460;2023-03-16T08:21:06;48.38;79.00
74420;DHT22;62855;50.718;-2.460;2023-03-16T08:24:06;48.56;79.00
74420;DHT22;62855;50.718;-2.460;2023-03-16T08:27:06;48.56;79.00
74420;DHT22;62855;50.718;-2.460;2023-03-16T08:30:08;48.56;79.00
74420;DHT22;62855;50.718;-2.460;2023-03-16T08:33:06;48.38;79.00
74420;DHT22;62855;50.718;-2.460;2023-03-16T08:36:06;48.38;79.00
74420;DHT22;62855;50.718;-2.460;2023-03-16T08:39:05;48.38;79.00
74420;DHT22;62855;50.718;-2.460;2023-03-16T08:42:07;48.38;79.00
74420;DHT22;62855;50.718;-2.460;2023-03-16T08:45:07;48.38;80.00
74420;DHT22;62855;50.718;-2.460;2023-03-16T08:48:06;48.38;80.00
74420;DHT22;62855;50.718;-2.460;2023-03-16T08:51:06;48.38;80.00
74420;DHT22;62855;50.718;-2.460;2023-03-16T08:54:06;48.56;80.00
74420;DHT22;62855;50.718;-2.460;2023-03-16T08:57:06;48.74;80.00
74420;DHT22;62855;50.718;-2.460;2023-03-16T09:00:07;48.92;80.00
74420;DHT22;62855;50.718;-2.460;2023-03-16T09:03:06;49.10;80.00
74420;DHT22;62855;50.718;-2.460;2023-03-16T09:06:08;49.10;80.00
74420;DHT22;62855;50.718;-2.460;2023-03-16T09:09:06;49.28;80.00
74420;DHT22;62855;50.718;-2.460;2023-03-16T09:12:06;49.46;79.00
74420;DHT22;62855;50.718;-2.460;2023-03-16T09:15:07;49.64;79.00
74420;DHT22;62855;50.718;-2.460;2023-03-16T09:18:06;49.64;79.00
74420;DHT22;62855;50.718;-2.460;2023-03-16T09:21:07;50.00;79.00
74420;DHT22;62855;50.718;-2.460;2023-03-16T09:24:06;50.36;78.00
74420;DHT22;62855;50.718;-2.460;2023-03-16T09:27:06;50.54;78.00
74420;DHT22;62855;50.718;-2.460;2023-03-16T09:30:08;50.72;78.00
74420;DHT22;62855;50.718;-2.460;2023-03-16T09:33:06;50.90;77.00
74420;DHT22;62855;50.718;-2.460;2023-03-16T09:36:06;51.08;76.00
74420;DHT22;62855;50.718;-2.460;2023-03-16T09:39:06;51.26;76.00
74420;DHT22;62855;50.718;-2.460;2023-03-16T09:42:14;51.26;76.00
74420;DHT22;62855;50.718;-2.460;2023-03-16T09:45:13;51.26;75.00
74420;DHT22;62855;50.718;-2.460;2023-03-16T09:48:08;51.44;75.00
74420;DHT22;62855;50.718;-2.460;2023-03-16T09:51:11;51.62;75.00
74420;DHT22;62855;50.718;-2.460;2023-03-16T09:54:14;51.62;75.00
74420;DHT22;62855;50.718;-2.460;2023-03-16T09:57:14;51.62;74.00
74420;DHT22;62855;50.718;-2.460;2023-03-16T10:00:15;51.44;73.00
74420;DHT22;62855;50.718;-2.460;2023-03-16T10:03:16;51.08;73.00
74420;DHT22;62855;50.718;-2.460;2023-03-16T10:06:08;51.08;73.00
74420;DHT22;62855;50.718;-2.460;2023-03-16T10:09:16;50.90;73.00
74420;DHT22;62855;50.718;-2.460;2023-03-16T10:12:07;50.90;73.00
74420;DHT22;62855;50.718;-2.460;2023-03-16T10:15:09;50.72;73.00
74420;DHT22;62855;50.718;-2.460;2023-03-16T10:18:12;50.72;73.00
74420;DHT22;62855;50.718;-2.460;2023-03-16T10:21:11;50.72;73.00
74420;DHT22;62855;50.718;-2.460;2023-03-16T10:24:17;50.72;73.00
74420;DHT22;62855;50.718;-2.460;2023-03-16T10:34:07;50.54;74.00
74420;DHT22;62855;50.718;-2.460;2023-03-16T10:37:12;50.54;74.00
74420;DHT22;62855;50.718;-2.460;2023-03-16T10:40:07;50.54;74.00
74420;DHT22;62855;50.718;-2.460;2023-03-16T10:43:10;50.36;74.00
74420;DHT22;62855;50.718;-2.460;2023-03-16T10:46:09;50.36;74.00
74420;DHT22;62855;50.718;-2.460;2023-03-16T10:49:18;50.36;74.00
74420;DHT22;62855;50.718;-2.460;2023-03-16T10:52:12;50.54;74.00
74420;DHT22;62855;50.718;-2.460;2023-03-16T10:55:09;50.54;74.00
74420;DHT22;62855;50.718;-2.460;2023-03-16T10:58:07;50.54;74.00
74420;DHT22;62855;50.718;-2.460;2023-03-16T11:01:09;50.72;74.00
74420;DHT22;62855;50.718;-2.460;2023-03-16T11:09:11;50.90;75.00
74420;DHT22;62855;50.718;-2.460;2023-03-16T11:12:20;50.90;75.00
74420;DHT22;62855;50.718;-2.460;2023-03-16T11:15:12;51.08;75.00
74420;DHT22;62855;50.718;-2.460;2023-03-16T11:18:09;51.26;75.00
74420;DHT22;62855;50.718;-2.460;2023-03-16T11:21:11;51.44;74.00
74420;DHT22;62855;50.718;-2.460;2023-03-16T11:24:13;51.62;74.00
74420;DHT22;62855;50.718;-2.460;2023-03-16T11:27:16;51.80;74.00
74420;DHT22;62855;50.718;-2.460;2023-03-16T11:30:13;51.98;74.00
74420;DHT22;62855;50.718;-2.460;2023-03-16T11:33:08;51.98;74.00
74420;DHT22;62855;50.718;-2.460;2023-03-16T11:36:20;51.98;74.00
74420;DHT22;62855;50.718;-2.460;2023-03-16T11:39:09;52.16;74.00
74420;DHT22;62855;50.718;-2.460;2023-03-16T11:42:16;52.16;74.00
74420;DHT22;62855;50.718;-2.460;2023-03-16T11:45:16;51.98;73.00
74420;DHT22;62855;50.718;-2.460;2023-03-16T11:48:18;51.98;73.00
74420;DHT22;62855;50.718;-2.460;2023-03-16T11:51:12;51.98;74.00
74420;DHT22;62855;50.718;-2.460;2023-03-16T11:54:16;51.98;74.00
74420;DHT22;62855;50.718;-2.460;2023-03-16T11:57:17;51.98;74.00
74420;DHT22;62855;50.718;-2.460;2023-03-16T12:00:19;51.98;74.00
74420;DHT22;62855;50.718;-2.460;2023-03-16T12:03:25;51.98;74.00
74420;DHT22;62855;50.718;-2.460;2023-03-16T12:06:18;51.80;74.00
74420;DHT22;62855;50.718;-2.460;2023-03-16T12:09:31;51.80;74.00
74420;DHT22;62855;50.718;-2.460;2023-03-16T12:12:18;51.80;74.00
74420;DHT22;62855;50.718;-2.460;2023-03-16T12:15:18;51.80;74.00
74420;DHT22;62855;50.718;-2.460;2023-03-16T12:18:13;51.80;74.00
74420;DHT22;62855;50.718;-2.460;2023-03-16T12:21:12;51.80;74.00
74420;DHT22;62855;50.718;-2.460;2023-03-16T12:24:11;51.98;74.00
74420;DHT22;62855;50.718;-2.460;2023-03-16T12:27:12;51.98;74.00
74420;DHT22;62855;50.718;-2.460;2023-03-16T12:30:21;51.98;74.00
74420;DHT22;62855;50.718;-2.460;2023-03-16T12:37:18;51.80;73.00
74420;DHT22;62855;50.718;-2.460;2023-03-16T12:40:19;51.62;74.00
74420;DHT22;62855;50.718;-2.460;2023-03-16T12:43:22;51.44;74.00
74420;DHT22;62855;50.718;-2.460;2023-03-16T12:46:07;51.44;74.00
74420;DHT22;62855;50.718;-2.460;2023-03-16T12:49:08;51.62;74.00
74420;DHT22;62855;50.718;-2.460;2023-03-16T12:52:08;51.62;74.00
74420;DHT22;62855;50.718;-2.460;2023-03-16T12:55:14;51.80;74.00
74420;DHT22;62855;50.718;-2.460;2023-03-16T12:58:07;51.80;74.00
74420;DHT22;62855;50.718;-2.460;2023-03-16T13:01:10;51.80;74.00
74420;DHT22;62855;50.718;-2.460;2023-03-16T13:04:09;51.62;74.00
74420;DHT22;62855;50.718;-2.460;2023-03-16T13:07:07;51.44;74.00
74420;DHT22;62855;50.718;-2.460;2023-03-16T13:10:09;51.26;74.00
74420;DHT22;62855;50.718;-2.460;2023-03-16T13:13:08;51.26;74.00
74420;DHT22;62855;50.718;-2.460;2023-03-16T13:16:08;51.26;74.00
74420;DHT22;62855;50.718;-2.460;2023-03-16T13:19:23;51.44;74.00
74420;DHT22;62855;50.718;-2.460;2023-03-16T13:22:18;51.44;74.00
74420;DHT22;62855;50.718;-2.460;2023-03-16T13:25:13;51.26;74.00
74420;DHT22;62855;50.718;-2.460;2023-03-16T13:28:10;51.08;74.00
74420;DHT22;62855;50.718;-2.460;2023-03-16T13:31:19;50.90;74.00
74420;DHT22;62855;50.718;-2.460;2023-03-16T13:34:12;50.90;74.00
74420;DHT22;62855;50.718;-2.460;2023-03-16T13:37:12;50.90;74.00
74420;DHT22;62855;50.718;-2.460;2023-03-16T13:40:18;50.72;74.00
74420;DHT22;62855;50.718;-2.460;2023-03-16T13:43:13;50.72;74.00
74420;DHT22;62855;50.718;-2.460;2023-03-16T13:46:13;50.72;74.00
74420;DHT22;62855;50.718;-2.460;2023-03-16T13:49:06;50.72;74.00
74420;DHT22;62855;50.718;-2.460;2023-03-16T13:52:12;50.90;75.00
74420;DHT22;62855;50.718;-2.460;2023-03-16T13:55:13;50.90;75.00
74420;DHT22;62855;50.718;-2.460;2023-03-16T13:58:19;51.08;75.00
74420;DHT22;62855;50.718;-2.460;2023-03-16T14:01:14;51.08;74.00
74420;DHT22;62855;50.718;-2.460;2023-03-16T14:04:10;50.90;74.00
74420;DHT22;62855;50.718;-2.460;2023-03-16T14:07:14;50.90;74.00
74420;DHT22;62855;50.718;-2.460;2023-03-16T14:10:08;50.72;74.00
74420;DHT22;62855;50.718;-2.460;2023-03-16T14:13:07;50.72;74.00
74420;DHT22;62855;50.718;-2.460;2023-03-16T14:16:13;50.54;74.00
74420;DHT22;62855;50.718;-2.460;2023-03-16T14:19:15;50.54;74.00
74420;DHT22;62855;50.718;-2.460;2023-03-16T14:22:12;50.54;74.00
74420;DHT22;62855;50.718;-2.460;2023-03-16T14:25:09;50.54;74.00
74420;DHT22;62855;50.718;-2.460;2023-03-16T14:28:06;50.54;74.00
74420;DHT22;62855;50.718;-2.460;2023-03-16T14:31:10;50.54;75.00
74420;DHT22;62855;50.718;-2.460;2023-03-16T14:34:19;50.72;75.00
74420;DHT22;62855;50.718;-2.460;2023-03-16T14:37:07;50.72;75.00
74420;DHT22;62855;50.718;-2.460;2023-03-16T14:40:20;50.72;75.00
74420;DHT22;62855;50.718;-2.460;2023-03-16T14:43:08;50.72;75.00
74420;DHT22;62855;50.718;-2.460;2023-03-16T14:46:06;50.72;74.00
74420;DHT22;62855;50.718;-2.460;2023-03-16T14:49:08;50.72;74.00
74420;DHT22;62855;50.718;-2.460;2023-03-16T14:52:14;50.54;74.00
74420;DHT22;62855;50.718;-2.460;2023-03-16T14:55:11;50.54;74.00
74420;DHT22;62855;50.718;-2.460;2023-03-16T14:58:05;50.36;74.00
74420;DHT22;62855;50.718;-2.460;2023-03-16T15:01:05;50.36;75.00
74420;DHT22;62855;50.718;-2.460;2023-03-16T15:04:06;50.36;75.00
74420;DHT22;62855;50.718;-2.460;2023-03-16T15:07:20;50.36;75.00
74420;DHT22;62855;50.718;-2.460;2023-03-16T15:10:16;50.36;75.00
74420;DHT22;62855;50.718;-2.460;2023-03-16T15:13:12;50.36;75.00
74420;DHT22;62855;50.718;-2.460;2023-03-16T15:16:10;50.36;76.00
74420;DHT22;62855;50.718;-2.460;2023-03-16T15:19:06;50.36;76.00
74420;DHT22;62855;50.718;-2.460;2023-03-16T15:22:08;50.36;76.00
74420;DHT22;62855;50.718;-2.460;2023-03-16T15:25:21;50.36;76.00
74420;DHT22;62855;50.718;-2.460;2023-03-16T15:28:11;50.36;76.00
74420;DHT22;62855;50.718;-2.460;2023-03-16T15:31:06;50.36;76.00
74420;DHT22;62855;50.718;-2.460;2023-03-16T15:34:06;50.36;76.00
74420;DHT22;62855;50.718;-2.460;2023-03-16T15:37:10;50.36;76.00
74420;DHT22;62855;50.718;-2.460;2023-03-16T15:40:16;50.36;76.00
74420;DHT22;62855;50.718;-2.460;2023-03-16T15:43:09;50.18;76.00
74420;DHT22;62855;50.718;-2.460;2023-03-16T15:46:06;50.18;76.00
74420;DHT22;62855;50.718;-2.460;2023-03-16T15:49:06;50.18;76.00
74420;DHT22;62855;50.718;-2.460;2023-03-16T15:52:16;50.18;76.00
74420;DHT22;62855;50.718;-2.460;2023-03-16T15:55:14;50.18;76.00
74420;DHT22;62855;50.718;-2.460;2023-03-16T15:58:11;50.18;76.00
74420;DHT22;62855;50.718;-2.460;2023-03-16T16:01:06;50.18;76.00
74420;DHT22;62855;50.718;-2.460;2023-03-16T16:04:11;50.00;76.00
74420;DHT22;62855;50.718;-2.460;2023-03-16T16:07:08;50.00;76.00
74420;DHT22;62855;50.718;-2.460;2023-03-16T16:10:09;50.00;76.00
74420;DHT22;62855;50.718;-2.460;2023-03-16T16:13:09;50.00;76.00
74420;DHT22;62855;50.718;-2.460;2023-03-16T16:16:08;49.82;76.00
74420;DHT22;62855;50.718;-2.460;2023-03-16T16:19:08;49.82;76.00
74420;DHT22;62855;50.718;-2.460;2023-03-16T16:22:10;49.82;76.00
74420;DHT22;62855;50.718;-2.460;2023-03-16T16:25:07;49.82;77.00
74420;DHT22;62855;50.718;-2.460;2023-03-16T16:28:11;49.82;77.00
74420;DHT22;62855;50.718;-2.460;2023-03-16T16:31:10;49.82;77.00
74420;DHT22;62855;50.718;-2.460;2023-03-16T16:34:11;49.82;77.00
74420;DHT22;62855;50.718;-2.460;2023-03-16T16:37:08;50.00;77.00
74420;DHT22;62855;50.718;-2.460;2023-03-16T16:40:06;50.00;77.00
74420;DHT22;62855;50.718;-2.460;2023-03-16T16:43:09;50.18;77.00
74420;DHT22;62855;50.718;-2.460;2023-03-16T16:46:11;50.36;78.00
74420;DHT22;62855;50.718;-2.460;2023-03-16T16:49:09;50.36;78.00
74420;DHT22;62855;50.718;-2.460;2023-03-16T16:52:10;50.54;78.00
74420;DHT22;62855;50.718;-2.460;2023-03-16T16:55:06;50.54;77.00
74420;DHT22;62855;50.718;-2.460;2023-03-16T16:58:12;50.72;77.00
74420;DHT22;62855;50.718;-2.460;2023-03-16T17:01:05;50.72;77.00
74420;DHT22;62855;50.718;-2.460;2023-03-16T17:04:13;50.72;77.00
74420;DHT22;62855;50.718;-2.460;2023-03-16T17:07:10;50.72;77.00
74420;DHT22;62855;50.718;-2.460;2023-03-16T17:10:08;50.72;77.00
74420;DHT22;62855;50.718;-2.460;2023-03-16T17:13:08;50.54;78.00
74420;DHT22;62855;50.718;-2.460;2023-03-16T17:16:13;50.36;78.00
74420;DHT22;62855;50.718;-2.460;2023-03-16T17:19:14;50.36;79.00
74420;DHT22;62855;50.718;-2.460;2023-03-16T17:22:23;50.36;79.00
74420;DHT22;62855;50.718;-2.460;2023-03-16T17:25:06;50.36;79.00
74420;DHT22;62855;50.718;-2.460;2023-03-16T17:28:08;50.18;80.00
74420;DHT22;62855;50.718;-2.460;2023-03-16T17:31:06;50.18;80.00
74420;DHT22;62855;50.718;-2.460;2023-03-16T17:34:14;50.00;80.00
74420;DHT22;62855;50.718;-2.460;2023-03-16T17:37:09;49.82;80.00
74420;DHT22;62855;50.718;-2.460;2023-03-16T17:40:14;49.82;80.00
74420;DHT22;62855;50.718;-2.460;2023-03-16T17:43:12;49.64;81.00
74420;DHT22;62855;50.718;-2.460;2023-03-16T17:46:06;49.64;81.00
74420;DHT22;62855;50.718;-2.460;2023-03-16T17:49:10;49.46;81.00
74420;DHT22;62855;50.718;-2.460;2023-03-16T17:52:12;49.46;81.00
74420;DHT22;62855;50.718;-2.460;2023-03-16T17:55:07;49.28;81.00
74420;DHT22;62855;50.718;-2.460;2023-03-16T17:58:18;49.28;81.00
74420;DHT22;62855;50.718;-2.460;2023-03-16T18:01:09;49.28;81.00
74420;DHT22;62855;50.718;-2.460;2023-03-16T18:04:14;49.28;82.00
74420;DHT22;62855;50.718;-2.460;2023-03-16T18:07:10;49.10;82.00
74420;DHT22;62855;50.718;-2.460;2023-03-16T18:10:12;49.10;82.00
74420;DHT22;62855;50.718;-2.460;2023-03-16T18:13:14;49.10;82.00
74420;DHT22;62855;50.718;-2.460;2023-03-16T18:16:07;49.28;82.00
74420;DHT22;62855;50.718;-2.460;2023-03-16T18:19:18;49.28;82.00
74420;DHT22;62855;50.718;-2.460;2023-03-16T18:22:14;49.28;82.00
74420;DHT22;62855;50.718;-2.460;2023-03-16T18:25:23;49.28;83.00
74420;DHT22;62855;50.718;-2.460;2023-03-16T18:28:07;49.28;83.00
74420;DHT22;62855;50.718;-2.460;2023-03-16T18:31:16;49.28;83.00
74420;DHT22;62855;50.718;-2.460;2023-03-16T18:34:06;49.28;83.00
74420;DHT22;62855;50.718;-2.460;2023-03-16T18:37:11;49.10;83.00
74420;DHT22;62855;50.718;-2.460;2023-03-16T18:40:10;49.10;83.00
74420;DHT22;62855;50.718;-2.460;2023-03-16T18:43:10;49.10;83.00
74420;DHT22;62855;50.718;-2.460;2023-03-16T18:46:14;49.10;83.00
74420;DHT22;62855;50.718;-2.460;2023-03-16T18:49:12;49.10;84.00
74420;DHT22;62855;50.718;-2.460;2023-03-16T18:52:16;49.28;84.00
74420;DHT22;62855;50.718;-2.460;2023-03-16T18:55:13;49.28;84.00